Terminal Aerodrome Forecast
Issued by NWS

Home | Current Version | Previous Version | Graphics & Text | Print | Product List | Glossary On
Versions: 1 2 3 4 5 6 7 8 9 10 11 12 13 14 15 16 17
000
FTUS43 KGRB 282300
TAFAUW
TAF
KAUW 282321Z 2900/2924 18006KT P6SM SCT250
     FM290800 18011G17KT P6SM BKN120 WS015/21040KT
     FM291200 19015G25KT 5SM -SN SCT040 BKN080 WS020/21045KT
      TEMPO 2912/2916 1 1/2SM -SNPL SCT012 BKN025
     FM291700 22016G30KT P6SM -RASN OVC025
     FM292000 29022G34KT P6SM BKN040=

USA.gov is the U.S. government's official web portal to all federal, state and local government web resources and services.